KGZH

Evergreen Regional / Middleton Field Airport

Evergreen, Alabama, USA
METAR KGZH 212353Z AUTO 16008KT 10SM FEW033 FEW060 24/18 A3029 RMK AO2 SLP252 T02390183 10300 20239 53009 $
Observed Flight Rules
Feb-21 @ 23:53 UTC (5 hours ago) Visual Flight Rules
Wind Visibility Clouds
160° at 8 knots 10 miles
  • Few at 3,300' AGL
  • Few at 6,000' AGL
Temperatures Readings
Current 24°C / 75°F
Dewpoint 18°C / 64°F
Humidity 69%
Altimeter 30.29" Hg
Pressure 1025.2 hPa
Elevation 78
METAR KGZH 212353Z AUTO 16008KT 10SM FEW033 FEW060 24/18 A3029 RMK AO2 SLP252 T02390183 10300 20239 53009 $
Observed Flight Rules
Feb-21 @ 23:53 UTC
(5 hours ago)
VFR
Wind Visibility
160° at 8 knots 10 miles
Clouds
  • Few at 3,300' AGL
  • Few at 6,000' AGL
Temperature Dewpoint
24°C / 75°F 18°C / 64°F
Humidity Altimeter Pressure
69% 30.29" Hg 1025.2 hPa